Bookmark and Share
Track history (hours):
 

Hellas Glory

Last reported at 2014-Apr-12 20:32 UTC. Time now 2014-Apr-19 05:15 UTC.
Position N 01°11' E 103°52'.

Length 225 m; draft 11.9 m.

Type: Tanker. MMSI: 249636000.

NotesDate/timePositionNaut miles runAvg speedWind from/ knotsBaromVisibWave heightAir tempDewpointWater temp
2014-Apr-12 20:32N 01°11' E 103°52'1111.4
2014-Apr-12 19:33N 01°05' E 103°43'10 8.7
2014-Apr-12 18:21N 01°10' E 103°34'7 8.2
2014-Apr-12 17:31N 01°12' E 103°41'0 0.3
2014-Apr-12 16:25N 01°12' E 103°41'0 0.0
2014-Apr-12 15:31N 01°12' E 103°41'0 0.1
2014-Apr-12 14:31N 01°12' E 103°41'0 0.1
2014-Apr-12 13:28N 01°12' E 103°41'0 0.0
2014-Apr-12 12:31N 01°12' E 103°41'0 0.1
2014-Apr-12 11:28N 01°12' E 103°41'0 0.0
2014-Apr-12 10:28N 01°12' E 103°41'0 0.1
2014-Apr-12 09:31N 01°12' E 103°41'0 0.1
2014-Apr-12 08:28N 01°12' E 103°41'0 0.1
2014-Apr-12 07:31N 01°12' E 103°41'0 0.0
2014-Apr-12 06:31N 01°12' E 103°41'0 0.1
2014-Apr-12 05:33N 01°12' E 103°41'5 4.9
2014-Apr-12 04:33N 01°12' E 103°36'3 2.8
2014-Apr-12 03:33N 01°11' E 103°33'4 4.4
2014-Apr-12 02:33N 01°10' E 103°29'  

Dump ship's entire track history

sailing weather and tide predictions

Hellas Glory — 9HWN9 — position and weather